GMFF/FEZ METAR and TAF weather

Enter ICAO airport designator
Station Type Date Time Source
GMFF METAR 2019/04/25 02:30 UTC NOAA

GMFF 250230Z 19008KT CAVOK 09/07 Q1019 NOSIG


Station Type Date Time Source
GMFF Decoded METAR 2019/04/25 02:30 UTC NOAA

Fes-Sais, Morocco (GMFF) 33-56N 004-59W 579M
Apr 24, 2019 - 10:30 PM EDT / 2019.04.25 0230 UTC
Wind: from the S (190 degrees) at 9 MPH (8 KT):0
Visibility: greater than 7 mile(s):0
Temperature: 48 F (9 C)
Dew Point: 44 F (7 C)
Relative Humidity: 87%
Pressure (altimeter): 30.09 in. Hg (1019 hPa)
ob: GMFF 250230Z 19008KT CAVOK 09/07 Q1019 NOSIG
cycle: 2

Station Type Date Time Source
GMFF TAF 2019/04/24 18:18 UTC NOAA

TAF TAF GMFF 241700Z 2418/2524 32010KT 9999 SCT033
BECMG 2420/2422 18004KT
BECMG 2511/2515 32012KT

Example: see airport list